createdAt,value
2022-12-31T00:01:04.181Z,1.53
2022-12-31T00:03:51.653Z,4.87
2022-12-31T00:06:39.300Z,1.00
2022-12-31T00:09:27.969Z,2.23
2022-12-31T00:12:15.005Z,0.60
2022-12-31T00:15:02.944Z,0.93
2022-12-31T00:17:49.818Z,2.73
2022-12-31T00:20:40.949Z,0.93
2022-12-31T00:23:28.072Z,0.63
2022-12-31T00:26:18.576Z,1.67
2022-12-31T00:29:06.743Z,0.83
2022-12-31T00:31:53.969Z,1.27
2022-12-31T00:34:41.244Z,0.70
2022-12-31T00:37:28.547Z,0.70
2022-12-31T00:40:15.978Z,2.17
2022-12-31T00:43:04.537Z,0.50
2022-12-31T00:45:51.800Z,0.50
2022-12-31T00:48:39.690Z,0.63
2022-12-31T00:51:27.875Z,0.40
2022-12-31T00:54:14.857Z,1.73
2022-12-31T00:57:01.685Z,0.97
2022-12-31T00:59:50.653Z,1.37
2022-12-31T01:02:37.883Z,1.47
2022-12-31T01:05:25.425Z,1.43
2022-12-31T01:08:12.850Z,0.70
2022-12-31T01:11:18.595Z,2.43
2022-12-31T01:14:08.091Z,0.60
2022-12-31T01:16:56.644Z,0.43
2022-12-31T01:19:44.948Z,0.50
2022-12-31T01:22:32.184Z,0.90
2022-12-31T01:25:19.420Z,1.37
2022-12-31T01:28:07.930Z,1.10
2022-12-31T01:30:54.900Z,0.60
2022-12-31T01:33:43.975Z,1.10
2022-12-31T01:36:33.564Z,0.70
2022-12-31T01:39:20.830Z,1.43
2022-12-31T01:42:07.604Z,1.40
2022-12-31T01:44:56.624Z,1.40
2022-12-31T01:47:46.607Z,0.80
2022-12-31T01:50:38.368Z,0.80
2022-12-31T01:53:25.493Z,0.40
2022-12-31T01:56:12.682Z,0.40
2022-12-31T01:59:00.579Z,0.87
2022-12-31T02:01:48.946Z,0.50
2022-12-31T02:04:36.337Z,0.40
2022-12-31T02:07:25.005Z,0.40
2022-12-31T02:10:12.052Z,0.50
2022-12-31T02:13:00.046Z,1.20
2022-12-31T02:15:58.682Z,0.40
2022-12-31T02:18:52.735Z,0.43
2022-12-31T02:21:50.656Z,0.40
2022-12-31T02:25:09.825Z,0.40
2022-12-31T02:28:12.070Z,1.93
2022-12-31T02:31:04.927Z,0.40
2022-12-31T02:33:55.952Z,0.40
2022-12-31T02:36:45.631Z,0.30
2022-12-31T02:39:33.705Z,1.20
2022-12-31T02:42:21.046Z,0.57
2022-12-31T02:45:09.311Z,1.20
2022-12-31T02:48:13.508Z,0.57
2022-12-31T02:51:13.507Z,0.63
2022-12-31T02:54:30.088Z,0.40
2022-12-31T02:57:26.487Z,0.37
2022-12-31T03:00:34.256Z,0.40
2022-12-31T03:03:23.654Z,0.80
2022-12-31T03:06:11.939Z,0.53
2022-12-31T03:09:15.219Z,1.07
2022-12-31T03:12:20.334Z,0.73
2022-12-31T03:15:19.985Z,0.60
2022-12-31T03:18:09.142Z,0.90
2022-12-31T03:21:15.538Z,0.50
2022-12-31T03:24:20.065Z,0.70
2022-12-31T03:27:06.977Z,0.97
2022-12-31T03:29:54.326Z,0.60
2022-12-31T03:32:41.857Z,0.63
2022-12-31T03:35:30.884Z,0.47
2022-12-31T03:38:20.822Z,0.70
2022-12-31T03:41:07.978Z,0.63
2022-12-31T03:43:55.757Z,0.50
2022-12-31T03:46:43.322Z,0.70
2022-12-31T03:49:30.758Z,0.70
2022-12-31T03:52:17.819Z,0.67
2022-12-31T03:55:09.520Z,0.57
2022-12-31T03:57:56.651Z,1.20
2022-12-31T04:00:43.585Z,6.53
2022-12-31T04:03:30.982Z,0.40
2022-12-31T04:06:17.966Z,0.47
2022-12-31T04:09:05.583Z,0.90
2022-12-31T04:11:54.209Z,0.63
2022-12-31T04:14:41.998Z,1.40
2022-12-31T04:17:28.987Z,0.50
2022-12-31T04:20:16.350Z,1.87
2022-12-31T04:23:03.383Z,1.87
2022-12-31T04:25:50.274Z,0.60
2022-12-31T04:28:38.746Z,0.50
2022-12-31T04:31:25.824Z,0.57
2022-12-31T04:34:13.040Z,0.30
2022-12-31T04:37:00.995Z,0.67
2022-12-31T04:39:47.948Z,0.50
2022-12-31T04:42:34.863Z,0.40
2022-12-31T04:45:23.216Z,0.60
2022-12-31T04:48:10.532Z,0.80
2022-12-31T04:50:57.527Z,0.50
2022-12-31T04:53:45.113Z,1.97
2022-12-31T04:56:33.172Z,0.63
2022-12-31T04:59:20.340Z,0.50
2022-12-31T05:02:09.741Z,0.30
2022-12-31T05:04:57.176Z,0.53
2022-12-31T05:07:44.210Z,1.57
2022-12-31T05:10:31.080Z,1.03
2022-12-31T05:13:18.650Z,0.60
2022-12-31T05:16:06.585Z,0.77
2022-12-31T05:18:55.490Z,0.73
2022-12-31T05:21:42.611Z,2.10
2022-12-31T05:24:29.946Z,0.70
2022-12-31T05:27:16.710Z,0.87
2022-12-31T05:30:03.553Z,0.60
2022-12-31T05:32:50.915Z,0.70
2022-12-31T05:35:39.230Z,0.57
2022-12-31T05:38:26.355Z,1.07
2022-12-31T05:41:13.356Z,0.30
2022-12-31T05:44:00.470Z,0.50
2022-12-31T05:46:48.192Z,0.73
2022-12-31T05:49:35.605Z,0.50
2022-12-31T05:52:24.360Z,0.60
2022-12-31T05:55:12.173Z,0.60
2022-12-31T05:57:59.147Z,0.67
2022-12-31T06:00:46.157Z,0.50
2022-12-31T06:03:33.627Z,0.53
2022-12-31T06:06:21.149Z,0.40
2022-12-31T06:09:09.520Z,0.50
2022-12-31T06:11:56.783Z,0.97
2022-12-31T06:14:45.952Z,0.70
2022-12-31T06:17:33.218Z,0.43
2022-12-31T06:20:20.691Z,1.03
2022-12-31T06:23:08.253Z,0.40
2022-12-31T06:25:56.878Z,0.50
2022-12-31T06:28:44.415Z,0.70
2022-12-31T06:31:31.372Z,1.97
2022-12-31T06:34:19.306Z,0.50
2022-12-31T06:37:06.561Z,1.17
2022-12-31T06:39:53.400Z,1.27
2022-12-31T06:42:43.457Z,1.23
2022-12-31T06:45:30.481Z,1.60
2022-12-31T06:48:18.801Z,0.60
2022-12-31T06:51:10.618Z,0.50
2022-12-31T06:54:00.866Z,0.60
2022-12-31T06:56:48.694Z,0.60
2022-12-31T06:59:37.839Z,0.90
2022-12-31T07:02:42.082Z,1.07
2022-12-31T07:05:40.163Z,0.53
2022-12-31T07:08:43.611Z,0.57
2022-12-31T07:11:36.566Z,0.30
2022-12-31T07:14:36.295Z,1.00
2022-12-31T07:17:33.348Z,2.20
2022-12-31T07:20:21.812Z,0.87
2022-12-31T07:23:10.096Z,0.40
2022-12-31T07:26:03.269Z,1.57
2022-12-31T07:29:01.996Z,0.60
2022-12-31T07:32:01.392Z,0.87
2022-12-31T07:34:57.937Z,3.40
2022-12-31T07:37:53.727Z,0.60
2022-12-31T07:40:57.567Z,0.73
2022-12-31T07:43:59.763Z,1.13
2022-12-31T07:46:55.646Z,0.73
2022-12-31T07:49:44.436Z,2.23
2022-12-31T07:52:33.465Z,0.60
2022-12-31T07:55:20.659Z,0.60
2022-12-31T07:58:19.264Z,0.47
2022-12-31T08:01:10.922Z,0.70
2022-12-31T08:04:04.214Z,0.95
2022-12-31T08:07:00.783Z,0.80
2022-12-31T08:10:03.768Z,0.40
2022-12-31T08:12:51.984Z,0.40
2022-12-31T08:15:40.424Z,0.40
2022-12-31T08:18:28.216Z,0.40
2022-12-31T08:21:28.230Z,0.68
2022-12-31T08:24:25.551Z,0.88
2022-12-31T08:27:21.753Z,3.70
2022-12-31T08:30:11.375Z,0.40
2022-12-31T08:33:09.244Z,0.82
2022-12-31T08:36:12.022Z,3.20
2022-12-31T08:39:06.496Z,1.27
2022-12-31T08:41:56.595Z,0.40
2022-12-31T08:44:53.540Z,0.40
2022-12-31T08:47:48.639Z,1.63
2022-12-31T08:50:36.218Z,0.40
2022-12-31T08:53:23.383Z,2.13
2022-12-31T08:56:17.497Z,0.50
2022-12-31T08:59:15.637Z,1.20
2022-12-31T09:02:31.799Z,0.80
2022-12-31T09:05:25.472Z,0.32
2022-12-31T09:08:23.972Z,0.55
2022-12-31T09:11:22.806Z,0.40
2022-12-31T09:14:27.096Z,1.05
2022-12-31T09:17:38.691Z,1.27
2022-12-31T09:20:41.917Z,0.95
2022-12-31T09:23:30.424Z,0.38
2022-12-31T09:26:33.819Z,0.40
2022-12-31T09:29:32.700Z,0.40
2022-12-31T09:32:27.412Z,1.73
2022-12-31T09:35:27.624Z,3.03
2022-12-31T09:38:20.995Z,0.30
2022-12-31T09:41:16.990Z,1.08
2022-12-31T09:44:49.826Z,8.77
2022-12-31T09:48:03.142Z,0.80
2022-12-31T09:51:04.357Z,0.32
2022-12-31T09:54:24.490Z,0.55
2022-12-31T09:57:39.220Z,1.65
2022-12-31T10:00:34.157Z,4.47
2022-12-31T10:03:49.780Z,0.35
2022-12-31T10:06:47.399Z,0.30
2022-12-31T10:09:47.823Z,0.63
2022-12-31T10:13:29.117Z,0.30
2022-12-31T10:16:33.905Z,1.23
2022-12-31T10:19:50.534Z,0.32
2022-12-31T10:23:09.726Z,0.43
2022-12-31T10:26:28.109Z,0.22
2022-12-31T10:29:25.887Z,0.30
2022-12-31T10:32:19.116Z,0.50
2022-12-31T10:35:21.112Z,0.60
2022-12-31T10:38:23.638Z,0.43
2022-12-31T10:41:49.714Z,0.50
2022-12-31T10:45:06.488Z,0.30
2022-12-31T10:48:44.658Z,0.57
2022-12-31T10:52:23.163Z,0.30
2022-12-31T10:55:45.000Z,0.20
2022-12-31T10:59:08.809Z,1.10
2022-12-31T11:02:11.285Z,2.92
2022-12-31T11:05:31.796Z,0.20
2022-12-31T11:08:48.118Z,0.55
2022-12-31T11:11:46.250Z,0.30
2022-12-31T11:14:56.130Z,0.38
2022-12-31T11:17:55.442Z,0.40
2022-12-31T11:21:00.361Z,0.45
2022-12-31T11:23:59.131Z,0.20
2022-12-31T11:27:00.631Z,0.10
2022-12-31T11:30:05.015Z,0.22
2022-12-31T11:33:11.935Z,0.73
2022-12-31T11:36:14.745Z,0.35
2022-12-31T11:39:31.081Z,0.30
2022-12-31T11:42:27.440Z,0.75
2022-12-31T11:45:21.384Z,0.30
2022-12-31T11:48:30.143Z,0.85
2022-12-31T11:51:37.015Z,0.20
2022-12-31T11:55:00.997Z,0.28
2022-12-31T11:57:52.198Z,0.40
2022-12-31T12:00:40.260Z,0.43
2022-12-31T12:03:27.950Z,0.22
2022-12-31T12:06:17.012Z,0.30
2022-12-31T12:09:07.016Z,0.40
2022-12-31T12:12:00.363Z,0.40
2022-12-31T12:14:52.757Z,0.30
2022-12-31T12:17:40.225Z,1.13
2022-12-31T12:20:32.920Z,0.30
2022-12-31T12:23:26.010Z,0.40
2022-12-31T12:26:29.595Z,0.40
2022-12-31T12:29:19.709Z,0.40
2022-12-31T12:32:17.466Z,1.05
2022-12-31T12:35:15.932Z,1.45
2022-12-31T12:38:05.987Z,0.35
2022-12-31T12:40:58.974Z,1.25
2022-12-31T12:43:46.383Z,0.30
2022-12-31T12:46:37.023Z,3.88
2022-12-31T12:49:27.546Z,0.85
2022-12-31T12:52:37.357Z,1.40
2022-12-31T12:55:33.342Z,0.93
2022-12-31T12:58:35.762Z,0.30
2022-12-31T13:01:30.705Z,0.40
2022-12-31T13:04:46.320Z,0.57
2022-12-31T13:07:42.478Z,0.90
2022-12-31T13:10:48.149Z,0.73
2022-12-31T13:13:43.674Z,3.97
2022-12-31T13:16:38.260Z,1.65
2022-12-31T13:19:38.386Z,5.20
2022-12-31T13:22:31.245Z,0.40
2022-12-31T13:25:28.024Z,1.45
2022-12-31T13:28:17.819Z,0.65
2022-12-31T13:31:10.655Z,1.45
2022-12-31T13:34:04.972Z,0.93
2022-12-31T13:36:55.603Z,0.63
2022-12-31T13:39:44.973Z,3.42
2022-12-31T13:42:40.493Z,0.90
2022-12-31T13:45:33.339Z,0.30
2022-12-31T13:48:28.266Z,0.85
2022-12-31T13:51:19.613Z,1.30
2022-12-31T13:54:17.586Z,0.80
2022-12-31T13:57:12.709Z,0.55
2022-12-31T14:00:04.559Z,0.65
2022-12-31T14:03:04.408Z,0.50
2022-12-31T14:05:56.672Z,1.35
2022-12-31T14:08:43.695Z,0.38
2022-12-31T14:11:48.955Z,0.32
2022-12-31T14:14:48.925Z,1.13
2022-12-31T14:17:42.782Z,1.98
2022-12-31T14:20:36.933Z,0.63
2022-12-31T14:23:30.243Z,1.98
2022-12-31T14:26:27.491Z,3.70
2022-12-31T14:29:27.853Z,7.38
2022-12-31T14:32:36.190Z,0.65
2022-12-31T14:35:41.500Z,0.40
2022-12-31T14:38:41.563Z,0.65
2022-12-31T14:41:45.179Z,0.90
2022-12-31T14:44:47.603Z,0.98
2022-12-31T14:47:47.855Z,2.05
2022-12-31T14:50:35.681Z,4.47
2022-12-31T14:53:25.358Z,1.25
2022-12-31T14:56:30.780Z,0.65
2022-12-31T14:59:26.727Z,2.55
2022-12-31T15:02:28.344Z,0.93
2022-12-31T15:05:19.910Z,0.40
2022-12-31T15:08:32.485Z,0.95
2022-12-31T15:11:49.088Z,2.13
2022-12-31T15:15:19.099Z,0.30
2022-12-31T15:18:31.078Z,0.45
2022-12-31T15:21:41.138Z,4.70
2022-12-31T15:24:31.026Z,0.55
2022-12-31T15:27:32.449Z,5.90
2022-12-31T15:30:43.177Z,1.47
2022-12-31T15:33:35.546Z,0.82
2022-12-31T15:36:25.759Z,1.20
2022-12-31T15:39:28.772Z,1.90
2022-12-31T15:42:40.658Z,0.63
2022-12-31T15:45:39.190Z,0.77
2022-12-31T15:48:32.408Z,1.73
2022-12-31T15:51:25.109Z,0.53
2022-12-31T15:54:24.311Z,1.33
2022-12-31T15:57:18.490Z,4.60
2022-12-31T16:00:15.944Z,1.47
2022-12-31T16:03:32.881Z,0.50
2022-12-31T16:06:24.492Z,1.50
2022-12-31T16:09:21.064Z,1.83
2022-12-31T16:12:12.783Z,1.63
2022-12-31T16:15:00.629Z,2.67
2022-12-31T16:17:48.374Z,1.53
2022-12-31T16:20:42.125Z,7.27
2022-12-31T16:23:30.566Z,0.60
2022-12-31T16:26:17.473Z,8.73
2022-12-31T16:29:05.558Z,6.60
2022-12-31T16:31:54.648Z,7.27
2022-12-31T16:34:42.408Z,4.70
2022-12-31T16:37:29.645Z,3.40
2022-12-31T16:40:24.422Z,2.97
2022-12-31T16:43:28.189Z,2.13
2022-12-31T16:46:20.816Z,2.13
2022-12-31T16:49:17.226Z,3.33
2022-12-31T16:52:08.783Z,2.93
2022-12-31T16:54:58.717Z,4.23
2022-12-31T16:57:54.043Z,1.97
2022-12-31T17:00:41.339Z,3.20
2022-12-31T17:03:29.710Z,4.47
2022-12-31T17:06:20.063Z,6.10
2022-12-31T17:09:14.540Z,4.13
2022-12-31T17:12:14.900Z,2.70
2022-12-31T17:15:05.776Z,4.60
2022-12-31T17:17:57.479Z,5.53
2022-12-31T17:20:44.792Z,6.43
2022-12-31T17:23:36.708Z,9.23
2022-12-31T17:26:28.472Z,11.07
2022-12-31T17:29:26.056Z,8.00
2022-12-31T17:32:36.769Z,9.20
2022-12-31T17:35:32.976Z,6.27
2022-12-31T17:38:31.813Z,4.80
2022-12-31T17:41:26.195Z,6.40
2022-12-31T17:44:18.375Z,8.80
2022-12-31T17:47:06.134Z,8.67
2022-12-31T17:49:55.449Z,6.33
2022-12-31T17:52:42.179Z,5.93
2022-12-31T17:55:30.483Z,7.90
2022-12-31T17:58:24.744Z,8.07
2022-12-31T18:01:18.890Z,6.87
2022-12-31T18:04:11.233Z,9.53
2022-12-31T18:06:59.821Z,5.33
2022-12-31T18:09:46.962Z,6.00
2022-12-31T18:12:43.523Z,7.13
2022-12-31T18:15:32.530Z,9.53
2022-12-31T18:18:25.467Z,5.80
2022-12-31T18:21:21.363Z,5.87
2022-12-31T18:24:16.673Z,11.23
2022-12-31T18:27:10.059Z,6.90
2022-12-31T18:30:04.096Z,5.93
2022-12-31T18:32:51.941Z,8.00
2022-12-31T18:36:07.563Z,3.53
2022-12-31T18:38:47.989Z,8.97
2022-12-31T18:41:41.027Z,5.13
2022-12-31T18:44:28.307Z,6.30
2022-12-31T18:47:16.521Z,5.13
2022-12-31T18:50:03.365Z,6.50
2022-12-31T18:52:50.667Z,5.63
2022-12-31T18:55:41.029Z,6.63
2022-12-31T18:58:29.760Z,6.37
2022-12-31T19:01:29.157Z,5.67
2022-12-31T19:04:26.631Z,8.67
2022-12-31T19:07:14.808Z,5.50
2022-12-31T19:10:01.974Z,6.90
2022-12-31T19:12:49.086Z,5.93
2022-12-31T19:15:43.666Z,6.00
2022-12-31T19:18:30.787Z,7.07
2022-12-31T19:21:20.062Z,4.30
2022-12-31T19:24:14.068Z,5.57
2022-12-31T19:27:02.581Z,4.67
2022-12-31T19:29:49.581Z,8.13
2022-12-31T19:32:37.714Z,6.17
2022-12-31T19:35:25.132Z,9.73
2022-12-31T19:38:19.101Z,7.13
2022-12-31T19:41:06.752Z,7.83
2022-12-31T19:43:54.134Z,6.40
2022-12-31T19:46:41.298Z,7.17
2022-12-31T19:49:29.485Z,7.07
2022-12-31T19:52:16.697Z,7.50
2022-12-31T19:55:03.636Z,7.17
2022-12-31T19:57:51.480Z,7.77
2022-12-31T20:00:38.484Z,7.27
2022-12-31T20:03:26.131Z,8.93
2022-12-31T20:06:14.855Z,9.90
2022-12-31T20:09:03.696Z,10.80
2022-12-31T20:11:51.312Z,10.53
2022-12-31T20:14:38.341Z,8.53
2022-12-31T20:17:25.732Z,10.37
2022-12-31T20:20:13.282Z,11.33
2022-12-31T20:23:01.784Z,6.53
2022-12-31T20:25:58.762Z,9.93
2022-12-31T20:28:47.153Z,10.77
2022-12-31T20:31:35.456Z,10.47
2022-12-31T20:34:22.826Z,9.10
2022-12-31T20:37:14.217Z,12.67
2022-12-31T20:40:03.003Z,7.97
2022-12-31T20:42:50.472Z,10.27
2022-12-31T20:45:41.393Z,10.90
2022-12-31T20:48:28.696Z,10.30
2022-12-31T20:51:17.448Z,13.33
2022-12-31T20:54:07.402Z,11.20
2022-12-31T20:56:55.668Z,10.87
2022-12-31T20:59:42.916Z,9.43
2022-12-31T21:02:41.525Z,11.50
2022-12-31T21:05:29.851Z,10.10
2022-12-31T21:08:17.107Z,9.10
2022-12-31T21:11:25.054Z,9.13
2022-12-31T21:14:12.485Z,8.73
2022-12-31T21:16:59.921Z,10.03
2022-12-31T21:19:47.754Z,7.20
2022-12-31T21:22:35.166Z,8.07
2022-12-31T21:25:22.508Z,5.80
2022-12-31T21:28:09.585Z,4.63
2022-12-31T21:31:00.242Z,6.00
2022-12-31T21:33:48.235Z,7.60
2022-12-31T21:36:35.068Z,6.40
2022-12-31T21:39:22.042Z,8.10
2022-12-31T21:42:09.013Z,8.30
2022-12-31T21:44:56.393Z,6.33
2022-12-31T21:48:03.003Z,7.03
2022-12-31T21:50:51.716Z,7.33
2022-12-31T21:53:39.047Z,4.17
2022-12-31T21:56:24.868Z,8.07
2022-12-31T21:59:28.831Z,9.27
2022-12-31T22:02:33.355Z,8.20
2022-12-31T22:05:25.303Z,10.40
2022-12-31T22:08:12.572Z,12.20
2022-12-31T22:11:00.092Z,3.40
2022-12-31T22:13:47.984Z,4.07
2022-12-31T22:16:35.093Z,7.70
2022-12-31T22:19:22.263Z,2.77
2022-12-31T22:22:11.162Z,2.07
2022-12-31T22:24:59.332Z,3.73
2022-12-31T22:28:11.468Z,2.37
2022-12-31T22:30:53.619Z,4.60
2022-12-31T22:33:40.806Z,2.50
2022-12-31T22:36:27.952Z,5.27
2022-12-31T22:39:43.471Z,1.37
2022-12-31T22:42:25.294Z,1.37
2022-12-31T22:45:13.329Z,2.07
2022-12-31T22:48:00.647Z,1.80
2022-12-31T22:50:56.119Z,3.57
2022-12-31T22:53:43.961Z,1.70
2022-12-31T22:56:32.256Z,1.70
2022-12-31T22:59:19.715Z,2.13
2022-12-31T23:02:06.515Z,1.33
2022-12-31T23:04:53.619Z,1.63
2022-12-31T23:08:00.843Z,2.53
2022-12-31T23:11:03.167Z,2.07
2022-12-31T23:14:10.310Z,2.70
2022-12-31T23:17:31.425Z,2.80
2022-12-31T23:20:38.719Z,3.00
2022-12-31T23:23:26.261Z,3.40
2022-12-31T23:26:13.115Z,3.43
2022-12-31T23:29:02.099Z,8.67
2022-12-31T23:31:49.941Z,7.43
2022-12-31T23:34:37.419Z,8.90
2022-12-31T23:37:24.807Z,10.93
2022-12-31T23:40:20.617Z,9.50
2022-12-31T23:43:09.445Z,12.77
2022-12-31T23:45:58.120Z,6.73
2022-12-31T23:48:45.556Z,9.10
2022-12-31T23:51:33.084Z,6.27
2022-12-31T23:54:20.236Z,7.17
2022-12-31T23:57:07.750Z,10.80
2022-12-31T23:59:54.967Z,9.30
